Time;durP1;ratioP1;P1;durP2;ratioP2;P2;SDS_P1;SDS_P2;PMS_P1;PMS_P2;Temp;Humidity;BMP_temperature;BMP_pressure;BME280_temperature;BME280_humidity;BME280_pressure;Samples;Min_cycle;Max_cycle;Signal;HPM_P1;HPM_P2
2024/02/11 00:02:20;;;;;;;16.77;15.23;;;11.00;16.70;;;;;;5006117;28;20463;-83
2024/02/11 00:04:48;;;;;;;17.33;15.43;;;11.00;1.00;;;;;;5001248;28;20466;-82
2024/02/11 00:07:16;;;;;;;15.63;13.97;;;11.10;99.90;;;;;;5004388;28;20479;-83
2024/02/11 00:09:45;;;;;;;16.50;15.00;;;11.00;99.90;;;;;;5002986;28;20480;-78
2024/02/11 00:12:14;;;;;;;16.00;14.50;;;11.00;99.90;;;;;;4999344;28;20442;-78
2024/02/11 00:14:42;;;;;;;16.30;14.87;;;10.90;99.90;;;;;;5001666;28;20454;-79
2024/02/11 00:17:10;;;;;;;16.90;15.13;;;10.80;1.00;;;;;;5001034;28;21007;-79
2024/02/11 00:19:38;;;;;;;16.87;15.07;;;10.80;1.00;;;;;;5000950;28;20455;-80
2024/02/11 00:22:08;;;;;;;17.07;15.30;;;10.80;69.20;;;;;;5003979;28;20458;-82
2024/02/11 00:24:36;;;;;;;16.73;15.10;;;10.80;1.00;;;;;;5002993;28;20461;-79
2024/02/11 00:27:06;;;;;;;15.77;14.27;;;10.80;1.00;;;;;;4989908;28;20481;-80
2024/02/11 00:29:34;;;;;;;17.07;15.57;;;10.80;1.00;;;;;;5000591;28;20477;-80
2024/02/11 00:32:02;;;;;;;17.30;15.60;;;10.80;22.30;;;;;;5000791;28;20960;-79
2024/02/11 00:34:31;;;;;;;16.90;15.20;;;10.70;1.00;;;;;;5005067;28;20459;-79
2024/02/11 00:36:59;;;;;;;15.77;14.03;;;10.80;72.30;;;;;;5003105;28;20572;-79
2024/02/11 00:39:27;;;;;;;14.70;13.40;;;10.80;29.90;;;;;;5001151;28;21100;-81
2024/02/11 00:41:56;;;;;;;14.30;13.00;;;10.80;9.60;;;;;;5000666;28;21299;-82
2024/02/11 00:44:25;;;;;;;18.53;14.70;;;10.80;31.90;;;;;;4999864;28;20509;-79
2024/02/11 00:46:53;;;;;;;14.90;13.40;;;10.80;1.00;;;;;;4998065;28;20474;-79
2024/02/11 00:49:21;;;;;;;14.50;13.10;;;10.80;36.70;;;;;;4984797;28;21051;-81
2024/02/11 00:51:49;;;;;;;14.47;13.27;;;10.80;97.80;;;;;;5001663;28;20456;-79
2024/02/11 00:54:17;;;;;;;17.50;14.43;;;10.80;1.00;;;;;;4998184;28;20452;-78
2024/02/11 00:56:45;;;;;;;14.97;13.60;;;10.80;16.60;;;;;;4997628;28;20478;-78
2024/02/11 00:59:16;;;;;;;14.60;13.33;;;10.80;39.50;;;;;;4997821;28;21197;-79
2024/02/11 01:01:46;;;;;;;14.57;13.27;;;10.80;92.30;;;;;;4994248;28;20462;-79
2024/02/11 01:04:14;;;;;;;13.70;12.37;;;10.80;99.90;;;;;;4996196;28;20577;-77
2024/02/11 01:06:42;;;;;;;15.63;14.10;;;10.80;99.90;;;;;;4995908;28;20552;-78
2024/02/11 01:09:11;;;;;;;15.03;13.57;;;10.80;99.90;;;;;;4996473;28;20863;-77
2024/02/11 01:11:39;;;;;;;14.00;12.77;;;10.80;99.90;;;;;;4980740;28;20902;-81
2024/02/11 01:14:07;;;;;;;13.60;12.30;;;10.80;99.90;;;;;;4998584;28;21082;-79
2024/02/11 01:16:36;;;;;;;15.70;14.10;;;10.90;99.90;;;;;;4988786;28;21151;-79
2024/02/11 01:19:06;;;;;;;12.83;11.93;;;10.90;99.90;;;;;;4998308;28;20456;-79
2024/02/11 01:21:35;;;;;;;13.40;12.13;;;10.80;68.80;;;;;;4998478;28;20593;-78
2024/02/11 01:24:04;;;;;;;14.23;12.80;;;10.80;16.10;;;;;;4999983;28;20465;-79
2024/02/11 01:26:33;;;;;;;15.37;13.90;;;10.80;99.90;;;;;;5000721;28;20478;-80
2024/02/11 01:29:03;;;;;;;15.57;14.27;;;10.90;1.00;;;;;;4998463;28;20543;-80
2024/02/11 01:31:31;;;;;;;15.37;13.77;;;10.90;1.00;;;;;;5002120;28;20454;-79
2024/02/11 01:33:59;;;;;;;17.03;15.40;;;10.90;1.00;;;;;;5001343;28;20438;-79
2024/02/11 01:36:29;;;;;;;14.23;13.03;;;10.80;69.40;;;;;;5000557;28;20490;-80
2024/02/11 01:38:57;;;;;;;16.57;14.87;;;10.80;33.10;;;;;;4999745;28;20542;-79
2024/02/11 01:41:25;;;;;;;14.57;13.40;;;10.80;99.90;;;;;;4998498;28;20446;-78
2024/02/11 01:43:53;;;;;;;14.87;13.63;;;10.80;99.90;;;;;;4997643;28;20454;-79
2024/02/11 01:46:22;;;;;;;15.53;14.17;;;10.80;99.90;;;;;;5000474;28;20478;-79
2024/02/11 01:48:50;;;;;;;15.67;14.20;;;10.80;99.90;;;;;;5001171;28;20446;-79
2024/02/11 01:51:19;;;;;;;14.50;13.30;;;10.80;99.90;;;;;;4997537;28;20545;-79
2024/02/11 01:53:49;;;;;;;14.37;12.90;;;10.80;18.50;;;;;;4996837;28;20513;-78
2024/02/11 01:56:20;;;;;;;13.60;12.30;;;10.80;95.60;;;;;;4997380;28;20508;-81
2024/02/11 01:58:49;;;;;;;14.70;13.40;;;10.80;99.90;;;;;;4998983;28;20457;-80
2024/02/11 02:01:20;;;;;;;13.70;12.47;;;10.70;99.90;;;;;;4998618;28;20503;-79
2024/02/11 02:03:49;;;;;;;13.70;12.50;;;10.70;99.90;;;;;;4996088;28;20455;-80
2024/02/11 02:06:17;;;;;;;13.63;12.37;;;10.70;99.90;;;;;;4993162;28;20466;-78
2024/02/11 02:08:47;;;;;;;13.57;12.17;;;10.70;99.90;;;;;;5000387;28;20454;-82
2024/02/11 02:11:17;;;;;;;13.17;11.97;;;10.70;99.90;;;;;;4995889;28;20476;-80
2024/02/11 02:13:45;;;;;;;12.43;11.40;;;10.70;99.90;;;;;;4997171;28;20453;-78
2024/02/11 02:16:13;;;;;;;12.23;10.93;;;10.70;99.90;;;;;;4997691;28;20553;-79
2024/02/11 02:18:46;;;;;;;10.87;10.10;;;10.80;99.90;;;;;;4997132;28;20453;-81
2024/02/11 02:21:14;;;;;;;10.67;9.77;;;10.80;99.90;;;;;;4998972;28;20455;-78
2024/02/11 02:23:44;;;;;;;8.40;7.80;;;10.90;99.90;;;;;;4995971;28;20462;-80
2024/02/11 02:26:12;;;;;;;7.17;6.67;;;10.90;99.90;;;;;;4994956;28;20468;-79
2024/02/11 02:28:41;;;;;;;6.77;6.27;;;11.00;74.10;;;;;;5001918;28;20458;-79
2024/02/11 02:31:10;;;;;;;5.63;5.30;;;10.90;99.90;;;;;;5000645;28;20481;-80
2024/02/11 02:33:38;;;;;;;4.87;4.70;;;10.80;1.00;;;;;;5002058;28;20537;-79
2024/02/11 02:36:07;;;;;;;4.73;4.57;;;10.70;1.00;;;;;;5003680;28;20540;-79
2024/02/11 02:38:35;;;;;;;3.70;3.60;;;10.80;99.90;;;;;;5001236;28;20482;-79
2024/02/11 02:41:05;;;;;;;3.80;3.60;;;10.70;1.00;;;;;;4999948;28;21023;-81
2024/02/11 02:43:35;;;;;;;3.20;3.10;;;10.70;1.00;;;;;;4998782;28;20958;-79
2024/02/11 02:46:03;;;;;;;3.33;3.23;;;10.70;1.00;;;;;;5000713;28;20457;-79
2024/02/11 02:48:31;;;;;;;2.83;2.73;;;10.60;99.90;;;;;;5000164;28;20537;-78
2024/02/11 02:51:00;;;;;;;2.40;2.30;;;10.60;1.00;;;;;;5001972;28;21031;-81
2024/02/11 02:53:28;;;;;;;2.30;2.20;;;10.60;99.90;;;;;;5002338;28;20442;-78
2024/02/11 02:55:57;;;;;;;2.60;2.50;;;10.50;99.90;;;;;;4999777;28;20539;-79
2024/02/11 02:58:27;;;;;;;2.10;2.10;;;10.50;99.90;;;;;;4998256;28;20458;-82
2024/02/11 03:00:55;;;;;;;2.30;2.30;;;10.40;99.90;;;;;;5002171;28;20462;-78
2024/02/11 03:03:23;;;;;;;2.23;2.20;;;10.40;1.00;;;;;;5002029;28;20458;-78
2024/02/11 03:05:51;;;;;;;2.00;2.00;;;10.40;99.90;;;;;;5004036;28;20462;-78
2024/02/11 03:08:20;;;;;;;1.83;1.83;;;10.40;1.00;;;;;;5000500;28;20461;-79
2024/02/11 03:10:48;;;;;;;1.80;1.80;;;10.30;1.00;;;;;;5000322;28;20505;-80
2024/02/11 03:13:16;;;;;;;1.70;1.70;;;10.30;99.90;;;;;;5004541;28;20505;-79
2024/02/11 03:15:45;;;;;;;1.70;1.70;;;10.20;99.90;;;;;;4999138;28;20459;-78
2024/02/11 03:18:14;;;;;;;1.83;1.83;;;10.20;99.90;;;;;;5000440;28;20474;-78
2024/02/11 03:20:42;;;;;;;1.70;1.70;;;10.10;99.90;;;;;;5000488;28;20585;-79
2024/02/11 03:23:10;;;;;;;1.73;1.73;;;10.10;99.90;;;;;;5000149;28;20464;-80
2024/02/11 03:25:40;;;;;;;1.60;1.60;;;10.00;99.90;;;;;;5000028;28;20454;-78
2024/02/11 03:28:08;;;;;;;1.60;1.60;;;10.10;99.90;;;;;;4997855;28;20940;-78
2024/02/11 03:30:36;;;;;;;1.70;1.60;;;10.10;99.90;;;;;;5001883;28;20589;-78
2024/02/11 03:33:06;;;;;;;1.70;1.70;;;10.00;99.90;;;;;;5002563;28;20536;-78
2024/02/11 03:35:34;;;;;;;1.60;1.60;;;9.90;99.90;;;;;;5001227;28;20447;-79
2024/02/11 03:38:02;;;;;;;1.50;1.50;;;10.00;99.90;;;;;;5000271;28;20956;-78
2024/02/11 03:40:31;;;;;;;1.60;1.50;;;10.00;99.90;;;;;;4999475;28;20516;-78
2024/02/11 03:42:59;;;;;;;1.80;1.80;;;9.90;99.90;;;;;;4998593;28;20495;-79
2024/02/11 03:45:27;;;;;;;1.60;1.60;;;9.90;1.00;;;;;;4999202;28;20473;-79
2024/02/11 03:47:55;;;;;;;1.50;1.50;;;9.90;1.00;;;;;;4999188;28;20504;-78
2024/02/11 03:50:25;;;;;;;1.50;1.50;;;9.80;1.00;;;;;;4996597;28;20585;-78
2024/02/11 03:52:56;;;;;;;1.47;1.47;;;9.80;38.10;;;;;;5001528;28;20474;-78
2024/02/11 03:55:24;;;;;;;1.50;1.50;;;9.80;1.00;;;;;;5000031;28;20438;-78
2024/02/11 03:57:53;;;;;;;1.57;1.50;;;9.70;1.00;;;;;;5001927;28;20480;-79
2024/02/11 04:00:24;;;;;;;1.40;1.40;;;9.60;1.00;;;;;;5001001;28;21251;-81
2024/02/11 04:02:53;;;;;;;1.40;1.40;;;9.70;1.00;;;;;;5003252;28;20846;-78
2024/02/11 04:05:24;;;;;;;1.40;1.40;;;9.60;1.00;;;;;;5001032;28;20458;-79
2024/02/11 04:07:55;;;;;;;1.40;1.40;;;9.60;1.00;;;;;;4997686;28;20485;-80
2024/02/11 04:10:28;;;;;;;1.53;1.53;;;9.50;1.00;;;;;;5000706;28;20535;-78
2024/02/11 04:12:58;;;;;;;2.77;2.50;;;9.50;99.90;;;;;;4995261;28;20458;-78
2024/02/11 04:15:28;;;;;;;2.00;1.90;;;9.50;1.00;;;;;;5000489;28;20849;-78
2024/02/11 04:18:07;;;;;;;1.50;1.50;;;9.50;99.90;;;;;;4999873;28;21139;-78
2024/02/11 04:20:36;;;;;;;1.40;1.40;;;9.40;1.00;;;;;;5000667;28;20456;-78
2024/02/11 04:23:07;;;;;;;1.50;1.50;;;9.40;1.00;;;;;;4992509;28;21034;-79
2024/02/11 04:25:36;;;;;;;1.40;1.40;;;9.50;1.00;;;;;;4996252;28;20453;-77
2024/02/11 04:28:07;;;;;;;1.40;1.40;;;9.50;1.00;;;;;;4993472;28;20567;-80
2024/02/11 04:30:37;;;;;;;1.40;1.40;;;9.40;1.00;;;;;;4994112;28;20486;-78
2024/02/11 04:33:06;;;;;;;1.70;1.60;;;9.40;1.00;;;;;;4995918;28;20461;-77
2024/02/11 04:35:36;;;;;;;1.50;1.50;;;9.40;1.00;;;;;;4997620;28;20473;-78
2024/02/11 04:38:12;;;;;;;1.50;1.50;;;9.40;1.00;;;;;;4994596;28;20478;-79
2024/02/11 04:40:42;;;;;;;1.50;1.40;;;9.30;99.90;;;;;;4998233;28;21076;-79
2024/02/11 04:43:12;;;;;;;1.40;1.40;;;9.30;1.00;;;;;;4996502;28;20536;-78
2024/02/11 04:45:41;;;;;;;1.50;1.50;;;9.30;1.00;;;;;;4997353;28;20464;-78
2024/02/11 04:48:11;;;;;;;1.30;1.30;;;9.20;99.90;;;;;;4999313;28;20474;-78
2024/02/11 04:50:39;;;;;;;1.50;1.50;;;9.20;99.90;;;;;;4985667;28;21382;-81
2024/02/11 04:53:10;;;;;;;1.50;1.50;;;9.20;1.00;;;;;;4975371;28;20480;-81
2024/02/11 04:55:43;;;;;;;1.50;1.50;;;9.10;99.90;;;;;;4997834;28;21057;-78
2024/02/11 04:58:15;;;;;;;1.50;1.50;;;9.10;99.90;;;;;;4992814;28;20481;-78
2024/02/11 05:00:47;;;;;;;1.50;1.50;;;9.00;99.90;;;;;;4994523;28;20462;-78
2024/02/11 05:03:17;;;;;;;1.50;1.50;;;8.90;1.00;;;;;;4996358;28;20461;-77
2024/02/11 05:05:49;;;;;;;1.50;1.50;;;9.00;1.00;;;;;;4998327;28;21480;-77
2024/02/11 05:08:22;;;;;;;1.40;1.40;;;8.90;99.90;;;;;;4998837;28;20465;-79
2024/02/11 05:10:52;;;;;;;1.50;1.50;;;9.00;1.00;;;;;;4998364;28;21047;-80
2024/02/11 05:13:23;;;;;;;1.60;1.60;;;9.10;99.90;;;;;;5000309;28;20466;-80
2024/02/11 05:15:53;;;;;;;1.50;1.50;;;8.90;99.90;;;;;;4998254;28;20496;-78
2024/02/11 05:18:21;;;;;;;1.40;1.40;;;9.00;1.00;;;;;;4998060;28;20475;-80
2024/02/11 05:20:50;;;;;;;1.33;1.33;;;9.00;99.90;;;;;;4996008;28;20531;-79
2024/02/11 05:23:20;;;;;;;1.40;1.40;;;8.90;99.90;;;;;;4999414;28;21253;-78
2024/02/11 05:25:50;;;;;;;1.40;1.40;;;8.70;99.90;;;;;;5000366;28;20506;-81
2024/02/11 05:28:19;;;;;;;1.50;1.40;;;8.80;99.90;;;;;;4999653;28;20472;-77
2024/02/11 05:30:50;;;;;;;2.13;1.40;;;8.80;99.90;;;;;;4998855;28;20465;-77
2024/02/11 05:33:20;;;;;;;1.30;1.30;;;8.70;99.90;;;;;;4996828;28;20445;-79
2024/02/11 05:35:50;;;;;;;1.40;1.40;;;8.80;99.90;;;;;;4998041;28;20462;-80
2024/02/11 05:38:21;;;;;;;1.40;1.40;;;8.80;99.90;;;;;;4994598;28;20473;-79
2024/02/11 05:40:56;;;;;;;1.50;1.50;;;8.70;99.90;;;;;;4996775;28;20454;-77
2024/02/11 05:43:26;;;;;;;1.50;1.50;;;8.80;99.90;;;;;;4996507;28;20656;-77
2024/02/11 05:45:55;;;;;;;1.40;1.40;;;8.80;99.90;;;;;;4999161;28;20894;-77
2024/02/11 05:48:24;;;;;;;1.40;1.40;;;8.90;99.90;;;;;;4994989;28;20466;-77
2024/02/11 05:50:52;;;;;;;1.40;1.40;;;8.90;99.90;;;;;;4994884;28;20457;-78
2024/02/11 05:53:22;;;;;;;1.40;1.40;;;8.80;99.90;;;;;;4998403;28;20463;-77
2024/02/11 05:55:53;;;;;;;1.53;1.53;;;8.70;99.90;;;;;;4995726;28;20985;-79
2024/02/11 05:58:21;;;;;;;1.50;1.50;;;8.50;99.90;;;;;;4998624;28;20847;-77
2024/02/11 06:00:50;;;;;;;2.90;1.40;;;8.60;99.90;;;;;;4994356;28;20473;-80
2024/02/11 06:03:20;;;;;;;1.40;1.40;;;8.50;99.90;;;;;;4999744;28;20457;-78
2024/02/11 06:05:49;;;;;;;1.40;1.40;;;8.60;99.90;;;;;;5000896;28;20451;-78
2024/02/11 06:08:19;;;;;;;1.40;1.40;;;8.70;99.90;;;;;;5002464;28;20492;-77
2024/02/11 06:10:49;;;;;;;1.40;1.40;;;8.60;99.90;;;;;;5001776;28;20871;-77
2024/02/11 06:13:18;;;;;;;1.40;1.40;;;8.60;99.90;;;;;;5003620;28;20466;-77
2024/02/11 06:15:47;;;;;;;1.40;1.40;;;8.60;99.90;;;;;;4999166;28;20501;-77
2024/02/11 06:18:17;;;;;;;1.40;1.40;;;8.50;99.90;;;;;;4981682;28;20842;-82
2024/02/11 06:20:46;;;;;;;1.40;1.40;;;8.50;99.90;;;;;;4999726;28;20464;-78
2024/02/11 06:23:15;;;;;;;1.47;1.47;;;8.40;99.90;;;;;;4995819;28;20517;-79
2024/02/11 06:25:44;;;;;;;1.50;1.50;;;8.50;99.90;;;;;;5002513;28;20461;-78
2024/02/11 06:28:14;;;;;;;1.50;1.50;;;8.60;99.90;;;;;;4999550;28;20469;-77
2024/02/11 06:30:42;;;;;;;1.50;1.50;;;8.40;99.90;;;;;;4998131;28;20467;-80
2024/02/11 06:33:10;;;;;;;1.50;1.50;;;8.30;99.90;;;;;;5003470;28;20561;-80
2024/02/11 06:35:40;;;;;;;1.57;1.57;;;8.30;99.90;;;;;;5002425;28;20462;-78
2024/02/11 06:38:08;;;;;;;1.40;1.40;;;8.50;99.90;;;;;;5001068;28;20612;-78
2024/02/11 06:40:37;;;;;;;1.80;1.70;;;8.50;99.90;;;;;;4999354;28;20453;-78
2024/02/11 06:43:11;;;;;;;1.60;1.50;;;8.50;99.90;;;;;;4990241;28;20487;-80
2024/02/11 06:45:45;;;;;;;1.50;1.50;;;8.40;99.90;;;;;;5000821;28;20475;-77
2024/02/11 06:48:15;;;;;;;1.70;1.60;;;8.50;99.90;;;;;;4999634;28;20495;-78
2024/02/11 06:50:44;;;;;;;2.50;1.60;;;8.50;99.90;;;;;;4981896;28;20520;-78
2024/02/11 06:53:12;;;;;;;1.80;1.80;;;8.40;99.90;;;;;;4999191;28;20485;-78
2024/02/11 06:55:41;;;;;;;1.50;1.50;;;8.50;1.00;;;;;;4989334;28;20457;-77
2024/02/11 06:58:09;;;;;;;1.67;1.60;;;8.50;99.90;;;;;;4983177;28;20548;-78
2024/02/11 07:00:38;;;;;;;1.60;1.60;;;8.40;99.90;;;;;;4999183;28;20512;-80
2024/02/11 07:03:10;;;;;;;1.70;1.60;;;8.50;99.90;;;;;;4996273;28;20969;-81
2024/02/11 07:05:41;;;;;;;2.00;1.90;;;8.40;1.00;;;;;;5003535;28;20453;-78
2024/02/11 07:08:11;;;;;;;1.80;1.70;;;8.40;1.00;;;;;;4999645;28;20478;-78
2024/02/11 07:10:39;;;;;;;2.03;1.93;;;8.30;1.00;;;;;;4999111;28;20570;-78
2024/02/11 07:13:08;;;;;;;1.60;1.60;;;8.40;1.00;;;;;;4998415;28;20482;-77
2024/02/11 07:15:36;;;;;;;1.90;1.80;;;8.30;1.00;;;;;;4997280;28;20540;-78
2024/02/11 07:18:06;;;;;;;2.10;1.90;;;8.30;1.00;;;;;;4997653;28;20498;-78
2024/02/11 07:20:36;;;;;;;2.30;2.20;;;8.30;1.00;;;;;;4999249;28;20450;-79
2024/02/11 07:23:05;;;;;;;2.30;2.10;;;8.30;1.00;;;;;;4995604;28;20461;-78
2024/02/11 07:25:33;;;;;;;2.10;2.00;;;8.30;1.00;;;;;;4983784;28;21071;-80
2024/02/11 07:28:01;;;;;;;2.17;2.07;;;8.40;1.00;;;;;;4995755;28;20514;-79
2024/02/11 07:30:31;;;;;;;2.30;2.10;;;8.40;1.00;;;;;;4985576;28;20476;-78
2024/02/11 07:32:59;;;;;;;2.73;2.63;;;8.40;1.00;;;;;;5000495;28;20509;-77
2024/02/11 07:35:27;;;;;;;3.20;3.00;;;8.30;1.00;;;;;;4998697;28;20450;-78
2024/02/11 07:37:58;;;;;;;5.97;3.10;;;8.30;1.00;;;;;;5000109;28;20485;-81
2024/02/11 07:40:26;;;;;;;3.40;3.20;;;8.20;1.00;;;;;;4995822;28;20458;-79
2024/02/11 07:42:54;;;;;;;3.30;3.10;;;8.20;1.00;;;;;;4998614;28;20207;-77
2024/02/11 07:45:22;;;;;;;3.20;3.00;;;8.30;52.60;;;;;;4999875;28;20465;-79
2024/02/11 07:47:51;;;;;;;3.33;3.10;;;8.40;99.90;;;;;;4998529;28;20477;-79
2024/02/11 07:50:19;;;;;;;3.20;3.00;;;8.30;1.00;;;;;;4999267;28;20469;-78
2024/02/11 07:52:48;;;;;;;3.77;3.37;;;8.40;1.00;;;;;;4998130;28;20527;-78
2024/02/11 07:55:18;;;;;;;4.20;3.80;;;8.40;99.90;;;;;;4992451;28;20960;-78
2024/02/11 07:57:47;;;;;;;3.97;3.70;;;8.40;34.30;;;;;;4998349;28;20485;-78
2024/02/11 08:00:20;;;;;;;3.40;3.17;;;8.50;99.90;;;;;;4994006;28;20461;-82
2024/02/11 08:02:50;;;;;;;3.83;3.53;;;8.50;1.00;;;;;;5001199;28;20450;-79
2024/02/11 08:05:21;;;;;;;3.30;3.10;;;8.30;1.00;;;;;;4998190;28;20474;-80
2024/02/11 08:07:50;;;;;;;4.23;3.80;;;8.30;1.00;;;;;;4996685;28;20508;-78
2024/02/11 08:10:22;;;;;;;5.27;4.87;;;8.30;99.90;;;;;;4999160;28;20465;-78
2024/02/11 08:12:51;;;;;;;4.10;3.90;;;8.40;99.90;;;;;;4996012;28;21002;-81
2024/02/11 08:15:19;;;;;;;4.03;3.83;;;8.50;24.70;;;;;;5009144;28;20462;-81
2024/02/11 08:17:47;;;;;;;3.80;3.50;;;8.50;99.90;;;;;;4993826;28;20475;-78
2024/02/11 08:20:18;;;;;;;6.70;4.07;;;8.40;99.90;;;;;;4999438;28;20462;-78
2024/02/11 08:22:47;;;;;;;5.73;4.00;;;8.50;1.00;;;;;;4997893;28;21047;-78
2024/02/11 08:25:16;;;;;;;4.27;3.90;;;8.60;99.90;;;;;;4995111;28;20470;-83
2024/02/11 08:27:46;;;;;;;4.83;4.33;;;8.60;99.90;;;;;;4994362;28;20533;-82
2024/02/11 08:30:14;;;;;;;4.40;3.80;;;8.60;99.90;;;;;;4996730;28;20736;-77
2024/02/11 08:32:43;;;;;;;3.70;3.50;;;8.60;99.90;;;;;;5000323;28;20471;-80
2024/02/11 08:35:12;;;;;;;4.33;3.93;;;8.70;99.90;;;;;;4996134;28;20567;-79
2024/02/11 08:37:41;;;;;;;4.70;3.80;;;8.70;99.90;;;;;;4996428;28;20473;-80
2024/02/11 08:40:10;;;;;;;4.20;3.80;;;8.90;99.90;;;;;;4998971;28;20462;-78
2024/02/11 08:42:39;;;;;;;4.10;3.73;;;9.00;99.90;;;;;;4998488;28;20446;-78
2024/02/11 08:45:11;;;;;;;6.17;4.10;;;9.00;99.90;;;;;;4995199;28;20461;-79
2024/02/11 08:47:40;;;;;;;3.60;3.40;;;9.00;99.90;;;;;;4999314;28;20484;-78
2024/02/11 08:50:10;;;;;;;6.50;4.37;;;9.10;99.90;;;;;;4997881;28;20573;-79
2024/02/11 08:52:40;;;;;;;4.33;4.00;;;9.20;1.00;;;;;;4997815;28;20460;-78
2024/02/11 08:55:09;;;;;;;4.67;4.23;;;9.50;1.00;;;;;;4996900;28;20454;-80
2024/02/11 08:57:37;;;;;;;4.97;4.47;;;9.60;1.00;;;;;;4995608;28;20485;-80
2024/02/11 09:00:12;;;;;;;5.10;4.70;;;9.60;1.00;;;;;;4995336;28;20516;-80
2024/02/11 09:02:42;;;;;;;4.40;4.10;;;9.50;1.00;;;;;;4994435;28;20222;-80
2024/02/11 09:05:10;;;;;;;4.40;4.10;;;9.50;1.00;;;;;;4996087;28;20537;-82
2024/02/11 09:07:42;;;;;;;4.47;3.77;;;9.50;1.00;;;;;;4997681;28;20486;-79
2024/02/11 09:10:13;;;;;;;4.43;4.13;;;9.50;1.00;;;;;;4996483;28;20458;-78
2024/02/11 09:12:42;;;;;;;4.50;4.10;;;9.60;1.00;;;;;;4999280;28;21023;-79
2024/02/11 09:15:11;;;;;;;6.20;4.40;;;9.60;1.00;;;;;;4996330;28;20458;-79
2024/02/11 09:17:45;;;;;;;3.70;3.50;;;9.40;1.00;;;;;;4995363;28;20485;-81
2024/02/11 09:20:14;;;;;;;4.27;3.90;;;9.40;23.40;;;;;;4995814;28;20446;-79
2024/02/11 09:22:43;;;;;;;6.10;4.30;;;9.30;19.40;;;;;;4995902;28;20545;-80
2024/02/11 09:25:13;;;;;;;5.80;4.70;;;9.20;1.00;;;;;;4996925;28;20529;-82
2024/02/11 09:27:43;;;;;;;4.37;3.97;;;9.30;1.00;;;;;;4995650;28;20461;-79
2024/02/11 09:30:15;;;;;;;5.20;4.77;;;9.20;1.00;;;;;;4992357;28;20458;-81
2024/02/11 09:32:46;;;;;;;5.70;4.40;;;9.20;1.00;;;;;;4994595;28;20478;-79
2024/02/11 09:35:17;;;;;;;6.93;4.20;;;9.10;1.00;;;;;;4996985;28;20556;-77
2024/02/11 09:37:45;;;;;;;4.30;4.00;;;9.20;1.00;;;;;;4995476;28;21035;-78
2024/02/11 09:40:15;;;;;;;3.70;3.40;;;9.20;1.00;;;;;;4999321;28;20460;-81
2024/02/11 09:42:45;;;;;;;4.30;3.90;;;9.10;1.00;;;;;;5003644;28;20817;-78
2024/02/11 09:45:18;;;;;;;4.90;3.63;;;9.20;1.00;;;;;;4999908;28;20935;-80
2024/02/11 09:47:52;;;;;;;4.30;3.90;;;9.30;1.00;;;;;;5002737;28;20489;-79
2024/02/11 09:50:23;;;;;;;4.67;4.10;;;9.20;1.00;;;;;;5003918;28;21367;-81
2024/02/11 09:52:52;;;;;;;7.33;6.10;;;9.30;1.00;;;;;;5002510;28;20462;-78
2024/02/11 09:55:21;;;;;;;4.43;4.03;;;9.30;1.00;;;;;;5003299;28;20485;-80
2024/02/11 09:57:50;;;;;;;5.33;4.67;;;9.30;1.00;;;;;;5004805;28;20470;-79
2024/02/11 10:00:20;;;;;;;4.90;4.50;;;9.30;1.00;;;;;;5003076;28;20451;-80
2024/02/11 10:02:54;;;;;;;6.57;4.67;;;9.20;1.00;;;;;;5001793;28;20469;-78
2024/02/11 10:05:25;;;;;;;4.83;4.37;;;9.20;1.00;;;;;;5002249;28;20964;-78
2024/02/11 10:07:56;;;;;;;7.60;4.70;;;9.30;1.00;;;;;;5002688;28;20853;-84
2024/02/11 10:10:25;;;;;;;4.57;4.27;;;9.20;1.00;;;;;;5010618;28;20445;-83
2024/02/11 10:12:57;;;;;;;5.07;4.67;;;9.30;1.00;;;;;;5006430;28;20487;-80
2024/02/11 10:15:26;;;;;;;4.57;4.07;;;9.40;1.00;;;;;;5006774;28;20484;-80
2024/02/11 10:17:55;;;;;;;4.97;4.07;;;9.40;1.00;;;;;;5004015;28;20479;-82
2024/02/11 10:20:24;;;;;;;4.83;4.47;;;9.40;1.00;;;;;;5000015;28;20540;-81
2024/02/11 10:22:53;;;;;;;3.60;3.23;;;9.30;99.90;;;;;;5006098;28;20459;-80
2024/02/11 10:25:22;;;;;;;4.57;4.20;;;9.30;99.90;;;;;;5006674;28;20499;-79
2024/02/11 10:27:52;;;;;;;5.07;4.63;;;9.40;1.00;;;;;;5004776;28;20477;-80
2024/02/11 10:30:20;;;;;;;4.90;4.43;;;9.60;1.00;;;;;;5010427;28;20457;-79
2024/02/11 10:32:49;;;;;;;4.83;3.70;;;9.60;1.00;;;;;;5006510;28;20880;-81
2024/02/11 10:35:20;;;;;;;4.03;3.63;;;9.80;99.90;;;;;;5006861;28;20481;-78
2024/02/11 10:37:48;;;;;;;3.93;3.63;;;10.10;99.90;;;;;;5003364;28;20568;-78
2024/02/11 10:40:23;;;;;;;3.67;3.47;;;10.50;99.90;;;;;;4998278;28;20537;-80
2024/02/11 10:42:51;;;;;;;4.63;4.13;;;11.00;99.90;;;;;;5005096;28;20482;-79
2024/02/11 10:45:19;;;;;;;3.70;3.40;;;11.00;1.00;;;;;;5003447;28;20443;-81
2024/02/11 10:47:47;;;;;;;3.87;3.60;;;10.70;1.00;;;;;;5008573;28;20516;-81
2024/02/11 10:50:17;;;;;;;3.60;3.27;;;10.60;1.00;;;;;;4998494;28;20451;-78
2024/02/11 10:52:50;;;;;;;4.47;4.17;;;10.40;1.00;;;;;;4998286;28;20446;-79
2024/02/11 10:55:22;;;;;;;4.30;4.03;;;10.30;1.00;;;;;;5000394;28;20987;-81
2024/02/11 10:57:52;;;;;;;3.50;3.30;;;10.20;1.00;;;;;;5002286;28;20480;-80
2024/02/11 11:00:22;;;;;;;3.70;3.13;;;10.00;1.00;;;;;;4984420;28;20476;-82
2024/02/11 11:02:55;;;;;;;3.43;3.20;;;10.00;1.00;;;;;;5000976;28;20543;-80
2024/02/11 11:05:26;;;;;;;4.73;3.60;;;9.90;1.00;;;;;;5003041;28;20442;-79
2024/02/11 11:07:58;;;;;;;2.97;2.77;;;9.80;24.20;;;;;;5000236;28;21087;-79
2024/02/11 11:10:29;;;;;;;3.20;2.90;;;9.80;1.00;;;;;;5002192;28;20556;-84
2024/02/11 11:12:58;;;;;;;3.60;3.30;;;9.80;11.50;;;;;;5003161;28;20459;-81
2024/02/11 11:15:31;;;;;;;3.03;2.83;;;9.80;1.00;;;;;;4999675;28;20483;-78
2024/02/11 11:18:01;;;;;;;3.50;2.60;;;9.80;1.00;;;;;;5000571;28;20477;-79
2024/02/11 11:20:33;;;;;;;7.07;3.07;;;9.90;9.30;;;;;;5000173;28;20442;-79
2024/02/11 11:23:06;;;;;;;4.33;3.03;;;10.00;10.70;;;;;;5001685;28;20449;-79
2024/02/11 11:25:36;;;;;;;3.87;3.57;;;9.90;12.80;;;;;;5001903;28;20990;-78
2024/02/11 11:28:12;;;;;;;4.20;3.40;;;9.90;41.90;;;;;;5002561;28;20875;-79
2024/02/11 11:30:40;;;;;;;3.40;3.20;;;10.00;3.30;;;;;;5004673;28;21163;-82
2024/02/11 11:33:10;;;;;;;2.90;2.80;;;10.00;26.10;;;;;;5003563;28;20577;-84
2024/02/11 11:35:38;;;;;;;3.23;2.93;;;9.90;1.00;;;;;;5005598;28;20573;-80
2024/02/11 11:38:07;;;;;;;2.50;2.40;;;9.90;1.00;;;;;;5003256;28;20811;-80
2024/02/11 11:40:36;;;;;;;3.80;3.50;;;9.90;5.30;;;;;;5006293;28;20540;-80
2024/02/11 11:43:16;;;;;;;3.17;2.97;;;10.20;99.90;;;;;;5004073;28;21248;-79
2024/02/11 11:45:56;;;;;;;3.27;3.00;;;10.80;18.50;;;;;;5000513;28;20482;-79
2024/02/11 11:48:25;;;;;;;3.00;2.80;;;11.30;1.00;;;;;;5001586;28;20552;-80
2024/02/11 11:50:55;;;;;;;2.73;2.60;;;11.50;1.00;;;;;;4997245;28;20500;-79
2024/02/11 11:53:26;;;;;;;2.67;2.57;;;11.60;1.00;;;;;;5002754;28;20521;-80
2024/02/11 11:55:56;;;;;;;5.03;4.53;;;11.70;1.00;;;;;;5005881;28;20501;-81
2024/02/11 11:58:26;;;;;;;3.00;2.90;;;11.50;1.00;;;;;;5004062;28;21281;-79
2024/02/11 12:01:02;;;;;;;3.00;2.80;;;11.70;1.00;;;;;;5001623;28;20446;-79
2024/02/11 12:03:31;;;;;;;3.77;3.13;;;11.50;1.00;;;;;;5002463;28;20454;-80
2024/02/11 12:06:00;;;;;;;2.70;2.50;;;11.50;1.00;;;;;;5001416;28;20486;-79
2024/02/11 12:08:30;;;;;;;2.30;2.20;;;11.40;1.00;;;;;;5000768;28;20483;-81
2024/02/11 12:11:01;;;;;;;2.53;2.33;;;11.30;1.00;;;;;;5000886;28;20446;-80
2024/02/11 12:13:32;;;;;;;3.50;2.47;;;11.20;1.00;;;;;;4998010;28;20457;-84
2024/02/11 12:16:02;;;;;;;2.20;2.10;;;11.20;1.00;;;;;;4999382;28;20399;-79
2024/02/11 12:18:31;;;;;;;3.10;2.67;;;11.20;1.00;;;;;;4999443;28;20206;-80
2024/02/11 12:21:00;;;;;;;2.70;2.50;;;11.20;1.00;;;;;;4999441;28;20928;-78
2024/02/11 12:23:33;;;;;;;2.23;2.13;;;11.10;1.00;;;;;;4999300;28;20504;-79
2024/02/11 12:26:03;;;;;;;2.70;2.30;;;11.20;1.00;;;;;;4999858;28;20504;-78
2024/02/11 12:28:32;;;;;;;2.30;2.20;;;11.20;1.00;;;;;;5000242;28;20450;-78
2024/02/11 12:31:11;;;;;;;2.10;2.00;;;11.10;1.00;;;;;;5001893;28;20473;-81
2024/02/11 12:33:40;;;;;;;2.30;2.20;;;11.00;1.00;;;;;;4999057;28;20450;-80
2024/02/11 12:36:10;;;;;;;2.67;2.33;;;10.90;1.00;;;;;;4999212;28;20482;-79
2024/02/11 12:38:42;;;;;;;2.40;2.20;;;10.90;1.00;;;;;;4996711;28;20526;-78
2024/02/11 12:41:11;;;;;;;2.77;2.57;;;11.00;1.00;;;;;;4978808;28;20451;-78
2024/02/11 12:43:42;;;;;;;2.00;1.90;;;11.20;1.00;;;;;;4999652;28;20464;-79
2024/02/11 12:46:10;;;;;;;2.23;2.10;;;11.20;1.00;;;;;;4999705;28;20461;-81
2024/02/11 12:48:40;;;;;;;1.63;1.60;;;11.20;1.00;;;;;;4999928;28;20968;-84
2024/02/11 12:51:10;;;;;;;3.07;2.43;;;11.10;99.90;;;;;;4997896;28;20457;-81
2024/02/11 12:53:40;;;;;;;2.63;2.47;;;11.40;1.00;;;;;;4982381;28;20528;-80
2024/02/11 12:56:10;;;;;;;3.07;2.60;;;11.40;1.00;;;;;;4996892;28;20482;-80
2024/02/11 12:58:40;;;;;;;2.17;2.07;;;11.50;1.00;;;;;;4998838;28;20472;-80
2024/02/11 13:01:10;;;;;;;2.20;2.10;;;11.40;1.00;;;;;;4999768;28;20452;-79
2024/02/11 13:03:39;;;;;;;2.40;2.30;;;11.50;1.00;;;;;;4996843;28;20454;-81
2024/02/11 13:06:08;;;;;;;2.47;2.37;;;11.40;99.90;;;;;;4999168;28;20477;-80